createdAt,value
2023-01-05T00:00:36.646Z,100260.69
2023-01-05T00:03:39.941Z,100271.53
2023-01-05T00:06:43.330Z,100273.00
2023-01-05T00:09:45.922Z,100281.88
2023-01-05T00:13:07.266Z,100284.91
2023-01-05T00:16:31.013Z,100292.19
2023-01-05T00:19:51.334Z,100291.69
2023-01-05T00:22:55.108Z,100297.56
2023-01-05T00:25:57.872Z,100292.25
2023-01-05T00:29:01.807Z,100300.50
2023-01-05T00:32:04.454Z,100303.22
2023-01-05T00:35:07.651Z,100290.09
2023-01-05T00:38:10.885Z,100301.53
2023-01-05T00:41:13.477Z,100300.75
2023-01-05T00:44:17.434Z,100303.78
2023-01-05T00:47:20.241Z,100300.59
2023-01-05T00:50:23.806Z,100315.44
2023-01-05T00:53:26.395Z,100306.06
2023-01-05T00:56:28.968Z,100304.66
2023-01-05T00:59:32.938Z,100312.91
2023-01-05T01:02:35.575Z,100305.97
2023-01-05T01:05:38.160Z,100313.06
2023-01-05T01:08:40.799Z,100313.06
2023-01-05T01:11:43.514Z,100307.00
2023-01-05T01:14:49.686Z,100315.91
2023-01-05T01:17:52.341Z,100305.06
2023-01-05T01:20:54.924Z,100329.63
2023-01-05T01:23:57.553Z,100317.50
2023-01-05T01:27:00.199Z,100325.66
2023-01-05T01:30:05.489Z,100326.03
2023-01-05T01:33:08.106Z,100327.25
2023-01-05T01:36:11.246Z,100344.84
2023-01-05T01:39:14.466Z,100343.25
2023-01-05T01:42:18.218Z,100342.66
2023-01-05T01:45:24.256Z,100348.56
2023-01-05T01:48:26.940Z,100354.31
2023-01-05T01:51:32.815Z,100354.78
2023-01-05T01:54:35.485Z,100354.91
2023-01-05T01:57:39.389Z,100355.56
2023-01-05T02:00:44.091Z,100363.91
2023-01-05T02:03:46.923Z,100354.66
2023-01-05T02:06:50.897Z,100351.88
2023-01-05T02:09:53.642Z,100362.59
2023-01-05T02:13:09.443Z,100362.19
2023-01-05T02:16:21.278Z,100360.47
2023-01-05T02:20:03.827Z,100359.81
2023-01-05T02:23:47.245Z,100362.88
2023-01-05T02:27:18.557Z,100367.75
2023-01-05T02:31:00.424Z,100355.13
2023-01-05T02:34:24.138Z,100357.69
2023-01-05T02:37:33.249Z,100364.19
2023-01-05T02:40:40.506Z,100365.13
2023-01-05T02:43:44.913Z,100360.41
2023-01-05T02:46:48.036Z,100373.25
2023-01-05T02:49:55.591Z,100371.06
2023-01-05T02:53:04.510Z,100376.84
2023-01-05T02:56:11.247Z,100368.28
2023-01-05T02:59:18.788Z,100370.47
2023-01-05T03:02:27.095Z,100381.75
2023-01-05T03:05:37.424Z,100387.25
2023-01-05T03:08:48.159Z,100393.75
2023-01-05T03:12:16.819Z,100390.44
2023-01-05T03:15:25.114Z,100393.94
2023-01-05T03:18:29.103Z,100391.22
2023-01-05T03:21:51.231Z,100406.50
2023-01-05T03:25:11.574Z,100405.38
2023-01-05T03:28:36.413Z,100397.63
2023-01-05T03:32:02.140Z,100410.94
2023-01-05T03:35:26.849Z,100412.31
2023-01-05T03:38:36.173Z,100417.59
2023-01-05T03:41:39.890Z,100413.16
2023-01-05T03:44:46.027Z,100420.00
2023-01-05T03:47:49.296Z,100408.97
2023-01-05T03:50:52.020Z,100415.03
2023-01-05T03:53:56.033Z,100417.50
2023-01-05T03:56:58.618Z,100426.72
2023-01-05T04:00:01.196Z,100428.06
2023-01-05T04:03:04.042Z,100423.28
2023-01-05T04:06:07.206Z,100435.69
2023-01-05T04:09:11.150Z,100440.72
2023-01-05T04:12:13.746Z,100445.34
2023-01-05T04:15:16.522Z,100452.94
2023-01-05T04:18:19.088Z,100460.25
2023-01-05T04:21:21.704Z,100447.19
2023-01-05T04:24:25.679Z,100438.75
2023-01-05T04:27:28.326Z,100453.66
2023-01-05T04:30:30.949Z,100462.53
2023-01-05T04:33:33.684Z,100466.75
2023-01-05T04:36:36.256Z,100472.97
2023-01-05T04:39:40.184Z,100462.88
2023-01-05T04:42:42.763Z,100480.69
2023-01-05T04:45:47.439Z,100485.28
2023-01-05T04:48:50.053Z,100482.56
2023-01-05T04:51:52.646Z,100481.41
2023-01-05T04:54:56.627Z,100491.75
2023-01-05T04:57:59.261Z,100492.56
2023-01-05T05:01:01.880Z,100495.63
2023-01-05T05:04:04.675Z,100497.50
2023-01-05T05:07:07.399Z,100513.25
2023-01-05T05:10:11.533Z,100508.28
2023-01-05T05:13:14.149Z,100534.66
2023-01-05T05:16:17.000Z,100514.91
2023-01-05T05:19:19.629Z,100520.25
2023-01-05T05:22:22.231Z,100522.22
2023-01-05T05:25:26.236Z,100520.34
2023-01-05T05:28:28.989Z,100534.50
2023-01-05T05:31:31.936Z,100516.06
2023-01-05T05:34:34.586Z,100549.72
2023-01-05T05:37:37.157Z,100536.13
2023-01-05T05:40:41.092Z,100548.50
2023-01-05T05:43:43.685Z,100538.06
2023-01-05T05:46:46.297Z,100532.72
2023-01-05T05:49:48.944Z,100554.16
2023-01-05T05:52:51.576Z,100550.59
2023-01-05T05:55:55.545Z,100563.28
2023-01-05T05:59:01.550Z,100568.13
2023-01-05T06:02:04.703Z,100565.53
2023-01-05T06:05:08.255Z,100588.31
2023-01-05T06:08:10.859Z,100582.84
2023-01-05T06:11:14.844Z,100583.78
2023-01-05T06:14:17.757Z,100591.34
2023-01-05T06:17:20.413Z,100593.53
2023-01-05T06:20:23.033Z,100604.66
2023-01-05T06:23:25.680Z,100613.50
2023-01-05T06:26:29.752Z,100606.38
2023-01-05T06:29:32.328Z,100615.31
2023-01-05T06:32:34.957Z,100618.88
2023-01-05T06:35:37.546Z,100611.56
2023-01-05T06:38:40.144Z,100642.38
2023-01-05T06:41:44.097Z,100625.91
2023-01-05T06:44:46.709Z,100632.72
2023-01-05T06:47:49.307Z,100636.59
2023-01-05T06:50:51.941Z,100628.03
2023-01-05T06:53:54.519Z,100642.91
2023-01-05T06:56:58.510Z,100654.19
2023-01-05T07:00:01.107Z,100656.69
2023-01-05T07:03:03.908Z,100680.91
2023-01-05T07:06:11.453Z,100668.41
2023-01-05T07:09:17.339Z,100683.34
2023-01-05T07:12:21.791Z,100664.75
2023-01-05T07:15:24.398Z,100671.97
2023-01-05T07:18:26.997Z,100680.72
2023-01-05T07:21:29.628Z,100685.06
2023-01-05T07:24:32.216Z,100688.50
2023-01-05T07:27:36.155Z,100692.97
2023-01-05T07:30:38.726Z,100693.03
2023-01-05T07:33:41.304Z,100706.56
2023-01-05T07:36:43.892Z,100714.19
2023-01-05T07:39:46.510Z,100707.28
2023-01-05T07:42:52.790Z,100718.78
2023-01-05T07:45:59.033Z,100728.44
2023-01-05T07:49:02.195Z,100721.22
2023-01-05T07:52:05.145Z,100723.00
2023-01-05T07:55:08.407Z,100729.75
2023-01-05T07:58:12.366Z,100727.09
2023-01-05T08:01:18.291Z,100741.22
2023-01-05T08:04:21.104Z,100746.25
2023-01-05T08:07:23.812Z,100752.63
2023-01-05T08:10:29.347Z,100776.22
2023-01-05T08:13:50.811Z,100771.66
2023-01-05T08:16:53.444Z,100784.66
2023-01-05T08:19:56.188Z,100785.13
2023-01-05T08:22:58.840Z,100796.69
2023-01-05T08:26:06.210Z,100804.66
2023-01-05T08:29:10.519Z,100814.34
2023-01-05T08:32:13.140Z,100817.31
2023-01-05T08:35:15.990Z,100819.03
2023-01-05T08:38:18.564Z,100838.41
2023-01-05T08:41:22.339Z,100846.22
2023-01-05T08:44:26.275Z,100849.78
2023-01-05T08:47:28.862Z,100856.19
2023-01-05T08:50:31.710Z,100872.19
2023-01-05T08:53:35.474Z,100884.28
2023-01-05T08:56:39.245Z,100900.88
2023-01-05T08:59:43.570Z,100902.91
2023-01-05T09:02:46.324Z,100908.25
2023-01-05T09:05:49.109Z,100920.03
2023-01-05T09:08:51.699Z,100925.13
2023-01-05T09:11:54.303Z,100925.66
2023-01-05T09:14:58.296Z,100926.50
2023-01-05T09:18:00.911Z,100940.88
2023-01-05T09:21:04.010Z,100949.31
2023-01-05T09:24:07.377Z,100960.91
2023-01-05T09:27:10.660Z,100969.75
2023-01-05T09:30:17.361Z,100974.25
2023-01-05T09:33:20.096Z,100976.78
2023-01-05T09:36:22.676Z,100979.50
2023-01-05T09:39:25.450Z,100997.22
2023-01-05T09:42:30.914Z,100996.50
2023-01-05T09:45:34.908Z,100992.59
2023-01-05T09:48:41.968Z,100996.22
2023-01-05T09:51:45.035Z,100994.19
2023-01-05T09:54:47.684Z,101006.59
2023-01-05T09:57:54.807Z,101014.22
2023-01-05T10:01:07.446Z,101013.63
2023-01-05T10:04:15.727Z,101023.41
2023-01-05T10:07:28.022Z,101024.59
2023-01-05T10:10:44.456Z,101027.31
2023-01-05T10:13:57.595Z,101044.56
2023-01-05T10:17:38.620Z,101033.22
2023-01-05T10:20:32.717Z,101042.50
2023-01-05T10:23:56.964Z,101054.19
2023-01-05T10:30:44.300Z,101066.06
2023-01-05T10:33:55.837Z,101064.34
2023-01-05T10:37:14.062Z,101079.97
2023-01-05T10:40:28.297Z,101087.63
2023-01-05T10:43:46.521Z,101074.16
2023-01-05T10:46:52.637Z,101086.28
2023-01-05T10:49:57.393Z,101087.81
2023-01-05T10:53:09.081Z,101106.41
2023-01-05T10:56:15.806Z,101101.13
2023-01-05T10:59:18.513Z,101105.97
2023-01-05T11:02:21.377Z,101106.50
2023-01-05T11:05:33.310Z,101095.16
2023-01-05T11:08:37.207Z,101098.91
2023-01-05T11:11:41.019Z,101105.94
2023-01-05T11:14:46.054Z,101120.22
2023-01-05T11:17:49.121Z,101128.69
2023-01-05T11:21:12.293Z,101131.25
2023-01-05T11:24:29.550Z,101129.31
2023-01-05T11:27:32.160Z,101130.88
2023-01-05T11:30:35.670Z,101121.88
2023-01-05T11:33:39.618Z,101130.00
2023-01-05T11:36:44.851Z,101143.47
2023-01-05T11:39:50.997Z,101143.09
2023-01-05T11:42:54.017Z,101147.59
2023-01-05T11:45:59.612Z,101155.41
2023-01-05T11:49:02.352Z,101160.28
2023-01-05T11:52:26.215Z,101157.75
2023-01-05T11:55:35.002Z,101164.97
2023-01-05T11:58:43.847Z,101174.81
2023-01-05T12:02:00.945Z,101186.25
2023-01-05T12:05:22.672Z,101186.84
2023-01-05T12:08:32.085Z,101184.00
2023-01-05T12:11:41.193Z,101186.13
2023-01-05T12:15:08.804Z,101196.06
2023-01-05T12:18:25.491Z,101189.09
2023-01-05T12:21:32.478Z,101199.06
2023-01-05T12:24:48.825Z,101211.09
2023-01-05T12:28:12.022Z,101203.81
2023-01-05T12:35:42.485Z,101208.50
2023-01-05T12:38:53.474Z,101207.09
2023-01-05T12:42:18.617Z,101220.25
2023-01-05T12:45:39.864Z,101217.69
2023-01-05T12:48:48.196Z,101225.53
2023-01-05T12:51:57.097Z,101233.31
2023-01-05T12:55:06.949Z,101233.31
2023-01-05T12:58:16.811Z,101243.41
2023-01-05T13:01:24.728Z,101253.22
2023-01-05T13:04:46.306Z,101254.06
2023-01-05T13:07:54.979Z,101264.06
2023-01-05T13:11:03.653Z,101273.44
2023-01-05T13:14:17.510Z,101283.38
2023-01-05T13:17:26.644Z,101290.63
2023-01-05T13:20:36.927Z,101299.81
2023-01-05T13:23:43.836Z,101302.75
2023-01-05T13:26:46.437Z,101287.28
2023-01-05T13:29:54.218Z,101295.34
2023-01-05T13:33:14.388Z,101300.03
2023-01-05T13:36:31.434Z,101317.00
2023-01-05T13:39:57.322Z,101316.16
2023-01-05T13:43:19.732Z,101315.13
2023-01-05T13:46:49.702Z,101326.91
2023-01-05T13:50:15.915Z,101323.16
2023-01-05T13:53:24.659Z,101324.03
2023-01-05T13:56:30.061Z,101322.75
2023-01-05T13:59:44.210Z,101322.84
2023-01-05T14:03:02.001Z,101327.97
2023-01-05T14:06:09.563Z,101321.66
2023-01-05T14:09:17.591Z,101337.25
2023-01-05T14:12:46.331Z,101343.00
2023-01-05T14:15:48.975Z,101358.69
2023-01-05T14:18:53.942Z,101369.78
2023-01-05T14:22:05.849Z,101370.41
2023-01-05T14:25:47.802Z,101378.75
2023-01-05T14:28:50.430Z,101381.56
2023-01-05T14:31:53.102Z,101383.44
2023-01-05T14:35:01.549Z,101401.22
2023-01-05T14:38:06.831Z,101406.56
2023-01-05T14:41:26.608Z,101405.16
2023-01-05T14:44:34.616Z,101413.97
2023-01-05T14:47:42.072Z,101416.03
2023-01-05T14:50:46.032Z,101427.13
2023-01-05T14:53:50.560Z,101426.34
2023-01-05T14:57:26.350Z,101432.59
2023-01-05T15:00:52.811Z,101421.88
2023-01-05T15:04:01.586Z,101433.34
2023-01-05T15:07:32.709Z,101433.47
2023-01-05T15:11:00.257Z,101434.50
2023-01-05T15:14:34.984Z,101434.16
2023-01-05T15:18:25.378Z,101446.75
2023-01-05T15:21:48.956Z,101453.34
2023-01-05T15:25:07.103Z,101477.16
2023-01-05T15:28:56.001Z,101481.81
2023-01-05T15:32:03.015Z,101469.53
2023-01-05T15:35:13.483Z,101470.94
2023-01-05T15:38:24.263Z,101478.22
2023-01-05T15:41:29.632Z,101475.72
2023-01-05T15:44:38.110Z,101483.03
2023-01-05T15:47:40.934Z,101475.44
2023-01-05T15:50:46.947Z,101495.16
2023-01-05T15:53:54.981Z,101494.72
2023-01-05T15:57:00.660Z,101497.84
2023-01-05T16:00:04.238Z,101500.84
2023-01-05T16:03:21.233Z,101502.44
2023-01-05T16:06:27.419Z,101501.81
2023-01-05T16:09:34.976Z,101502.56
2023-01-05T16:12:39.007Z,101507.00
2023-01-05T16:15:43.242Z,101507.66
2023-01-05T16:18:51.467Z,101515.28
2023-01-05T16:21:58.706Z,101515.94
2023-01-05T16:25:06.649Z,101512.47
2023-01-05T16:28:17.305Z,101516.06
2023-01-05T16:31:28.111Z,101516.75
2023-01-05T16:34:31.478Z,101512.63
2023-01-05T16:37:34.075Z,101498.50
2023-01-05T16:40:37.808Z,101517.72
2023-01-05T16:43:47.908Z,101519.44
2023-01-05T16:47:05.820Z,101522.13
2023-01-05T16:50:55.149Z,101513.69
2023-01-05T16:54:04.841Z,101508.78
2023-01-05T16:57:33.619Z,101510.69
2023-01-05T17:00:39.823Z,101518.53
2023-01-05T17:03:43.327Z,101521.22
2023-01-05T17:06:48.349Z,101530.28
2023-01-05T17:09:51.424Z,101529.16
2023-01-05T17:12:58.784Z,101539.00
2023-01-05T17:16:03.861Z,101531.81
2023-01-05T17:19:12.766Z,101547.00
2023-01-05T17:22:15.389Z,101543.28
2023-01-05T17:25:18.192Z,101545.97
2023-01-05T17:28:22.139Z,101548.69
2023-01-05T17:31:26.581Z,101548.63
2023-01-05T17:34:29.359Z,101551.19
2023-01-05T17:37:31.953Z,101549.50
2023-01-05T17:40:34.792Z,101542.63
2023-01-05T17:43:37.418Z,101539.97
2023-01-05T17:46:43.562Z,101539.19
2023-01-05T17:49:46.467Z,101542.00
2023-01-05T17:52:49.185Z,101546.41
2023-01-05T17:55:51.792Z,101554.38
2023-01-05T17:58:54.429Z,101547.47
2023-01-05T18:01:58.510Z,101550.09
2023-01-05T18:05:01.130Z,101557.09
2023-01-05T18:11:11.261Z,101560.69
2023-01-05T18:14:13.901Z,101564.25
2023-01-05T18:17:17.892Z,101548.44
2023-01-05T18:20:21.463Z,101551.97
2023-01-05T18:23:24.412Z,101549.53
2023-01-05T18:26:27.031Z,101562.91
2023-01-05T18:29:29.641Z,101551.50
2023-01-05T18:32:33.830Z,101551.59
2023-01-05T18:35:38.551Z,101545.59
2023-01-05T18:38:43.376Z,101548.59
2023-01-05T18:41:45.979Z,101558.28
2023-01-05T18:44:48.558Z,101553.25
2023-01-05T18:47:52.517Z,101556.72
2023-01-05T18:50:55.156Z,101544.63
2023-01-05T18:53:57.763Z,101547.53
2023-01-05T18:57:00.367Z,101540.50
2023-01-05T19:00:03.669Z,101544.22
2023-01-05T19:03:07.767Z,101546.94
2023-01-05T19:06:13.881Z,101558.34
2023-01-05T19:09:17.560Z,101556.75
2023-01-05T19:12:20.259Z,101561.25
2023-01-05T19:15:22.856Z,101563.09
2023-01-05T19:18:26.801Z,101561.28
2023-01-05T19:21:31.357Z,101555.22
2023-01-05T19:24:35.243Z,101557.94
2023-01-05T19:27:37.847Z,101559.66
2023-01-05T19:30:40.431Z,101560.56
2023-01-05T19:33:44.795Z,101554.38
2023-01-05T19:36:48.137Z,101559.41
2023-01-05T19:39:50.724Z,101557.59
2023-01-05T19:42:53.363Z,101554.91
2023-01-05T19:45:59.144Z,101545.09
2023-01-05T19:49:03.297Z,101550.34
2023-01-05T19:52:06.008Z,101548.59
2023-01-05T19:55:10.613Z,101551.94
2023-01-05T19:58:13.273Z,101538.69
2023-01-05T20:01:17.045Z,101544.78
2023-01-05T20:04:21.208Z,101550.09
2023-01-05T20:07:23.829Z,101552.72
2023-01-05T20:10:26.441Z,101556.16
2023-01-05T20:13:29.009Z,101555.16
2023-01-05T20:16:32.315Z,101556.84
2023-01-05T20:19:37.561Z,101552.34
2023-01-05T20:22:40.867Z,101557.66
2023-01-05T20:25:43.435Z,101548.88
2023-01-05T20:28:47.121Z,101553.19
2023-01-05T20:31:54.718Z,101549.66
2023-01-05T20:35:00.722Z,101556.72
2023-01-05T20:38:03.343Z,101550.50
2023-01-05T20:41:14.109Z,101553.13
2023-01-05T20:44:19.874Z,101554.81
2023-01-05T20:47:22.455Z,101558.28
2023-01-05T20:50:26.571Z,101554.75
2023-01-05T20:53:29.175Z,101560.81
2023-01-05T20:56:38.338Z,101552.06
2023-01-05T20:59:41.259Z,101560.28
2023-01-05T21:02:45.204Z,101563.59
2023-01-05T21:05:49.277Z,101563.97
2023-01-05T21:08:52.469Z,101564.63
2023-01-05T21:11:55.090Z,101568.88
2023-01-05T21:14:57.662Z,101570.63
2023-01-05T21:18:00.252Z,101565.19
2023-01-05T21:21:06.156Z,101564.25
2023-01-05T21:24:09.089Z,101574.09
2023-01-05T21:27:11.875Z,101562.72
2023-01-05T21:30:14.674Z,101568.75
2023-01-05T21:33:17.324Z,101570.53
2023-01-05T21:36:24.247Z,101574.28
2023-01-05T21:39:28.359Z,101565.44
2023-01-05T21:42:45.097Z,101561.03
2023-01-05T21:45:47.724Z,101561.16
2023-01-05T21:48:50.311Z,101567.22
2023-01-05T21:52:11.969Z,101563.63
2023-01-05T21:55:32.444Z,101550.50
2023-01-05T21:58:35.969Z,101558.56
2023-01-05T22:01:39.892Z,101554.81
2023-01-05T22:04:43.294Z,101550.50
2023-01-05T22:07:47.463Z,101558.56
2023-01-05T22:10:55.139Z,101554.91
2023-01-05T22:13:57.719Z,101549.63
2023-01-05T22:17:00.928Z,101541.63
2023-01-05T22:20:03.528Z,101545.25
2023-01-05T22:23:07.515Z,101530.00
2023-01-05T22:26:12.255Z,101527.84
2023-01-05T22:29:14.904Z,101527.03
2023-01-05T22:32:17.484Z,101523.53
2023-01-05T22:35:20.094Z,101524.25
2023-01-05T22:38:24.022Z,101522.66
2023-01-05T22:41:29.808Z,101518.09
2023-01-05T22:44:32.404Z,101521.56
2023-01-05T22:47:35.065Z,101518.00
2023-01-05T22:50:37.665Z,101509.56
2023-01-05T22:53:42.601Z,101518.41
2023-01-05T22:56:45.184Z,101520.19
2023-01-05T22:59:47.798Z,101504.22
2023-01-05T23:02:50.429Z,101498.81
2023-01-05T23:05:54.265Z,101489.19
2023-01-05T23:08:59.275Z,101496.56
2023-01-05T23:12:02.201Z,101494.41
2023-01-05T23:15:05.410Z,101490.97
2023-01-05T23:18:07.983Z,101482.84
2023-01-05T23:21:12.493Z,101478.13
2023-01-05T23:24:16.689Z,101479.75
2023-01-05T23:27:19.259Z,101479.78
2023-01-05T23:30:21.880Z,101474.50
2023-01-05T23:33:26.320Z,101470.03
2023-01-05T23:36:29.005Z,101472.53
2023-01-05T23:39:32.963Z,101465.16
2023-01-05T23:42:46.160Z,101463.72
2023-01-05T23:45:49.733Z,101450.63
2023-01-05T23:48:53.267Z,101453.16
2023-01-05T23:51:55.858Z,101440.84
2023-01-05T23:54:59.823Z,101439.72
2023-01-05T23:58:02.759Z,101430.84
